Time;durP1;ratioP1;P1;durP2;ratioP2;P2;SDS_P1;SDS_P2;PMS_P1;PMS_P2;Temp;Humidity;BMP_temperature;BMP_pressure;BME280_temperature;BME280_humidity;BME280_pressure;Samples;Min_cycle;Max_cycle;Signal;HPM_P1;HPM_P2
2022/06/03 00:01:08;;;;;;;7.78;5.22;;;10.10;99.90;;;;;;5071918;28;20114;-73
2022/06/03 00:03:54;;;;;;;6.22;4.97;;;10.10;99.90;;;;;;5071955;28;20048;-73
2022/06/03 00:06:27;;;;;;;5.43;4.65;;;10.10;99.90;;;;;;5071672;28;20486;-73
2022/06/03 00:08:52;;;;;;;5.90;5.38;;;10.00;99.90;;;;;;5055169;28;20085;-73
2022/06/03 00:11:45;;;;;;;5.53;5.07;;;10.00;99.90;;;;;;5055017;28;20123;-73
2022/06/03 00:14:10;;;;;;;;;;;10.00;99.90;;;;;;5055464;28;20072;-72
2022/06/03 00:16:57;;;;;;;5.30;4.75;;;10.00;99.90;;;;;;5071646;28;20299;-72
2022/06/03 00:19:50;;;;;;;5.90;5.30;;;9.90;99.90;;;;;;5054918;28;20055;-72
2022/06/03 00:22:53;;;;;;;6.03;5.00;;;9.90;99.90;;;;;;5054678;28;20123;-73
2022/06/03 00:26:00;;;;;;;6.90;4.88;;;9.90;99.90;;;;;;5071670;28;20474;-73
2022/06/03 00:28:29;;;;;;;6.25;5.28;;;9.80;99.90;;;;;;5072635;28;20040;-72
2022/06/03 00:31:29;;;;;;;8.13;5.50;;;9.80;99.90;;;;;;5071254;28;20498;-72
2022/06/03 00:34:11;;;;;;;7.97;5.10;;;9.70;99.90;;;;;;5071199;28;20036;-73
2022/06/03 00:36:48;;;;;;;7.00;5.53;;;9.70;99.90;;;;;;5071246;28;20040;-73
2022/06/03 00:39:14;;;;;;;6.75;6.03;;;9.70;99.90;;;;;;5054612;28;20045;-73
2022/06/03 00:42:07;;;;;;;9.10;5.57;;;9.60;99.90;;;;;;5071175;28;20044;-72
2022/06/03 00:44:54;;;;;;;5.35;4.85;;;9.60;99.90;;;;;;5070938;28;20047;-73
2022/06/03 00:47:38;;;;;;;7.20;4.88;;;9.50;99.90;;;;;;5054197;28;20494;-73
2022/06/03 00:50:32;;;;;;;6.60;6.00;;;9.50;99.90;;;;;;5070841;28;20036;-73
2022/06/03 00:53:27;;;;;;;6.63;5.63;;;9.40;99.90;;;;;;5070928;28;20513;-73
2022/06/03 00:56:22;;;;;;;7.32;5.65;;;9.40;99.90;;;;;;5071302;28;20442;-73
2022/06/03 00:59:09;;;;;;;7.75;6.13;;;9.40;99.90;;;;;;5071049;28;20044;-73
2022/06/03 01:02:01;;;;;;;6.78;6.00;;;9.40;99.90;;;;;;5070478;28;20086;-73
2022/06/03 01:04:58;;;;;;;8.00;6.20;;;9.40;99.90;;;;;;5070477;28;20131;-73
2022/06/03 01:07:30;;;;;;;10.48;6.53;;;9.30;99.90;;;;;;5053979;28;20098;-73
2022/06/03 01:10:33;;;;;;;9.02;6.50;;;9.20;99.90;;;;;;5070561;28;20109;-74
2022/06/03 01:13:17;;;;;;;7.85;7.15;;;9.20;99.90;;;;;;5070919;28;20040;-73
2022/06/03 01:16:14;;;;;;;8.05;6.97;;;9.10;99.90;;;;;;5070396;28;20592;-74
2022/06/03 01:18:43;;;;;;;7.93;6.85;;;9.00;99.90;;;;;;5064533;28;20051;-74
2022/06/03 01:22:06;;;;;;;11.50;7.25;;;9.10;99.90;;;;;;5070207;28;20406;-74
2022/06/03 01:24:44;;;;;;;6.97;6.28;;;9.00;99.90;;;;;;5029134;28;20050;-74
2022/06/03 01:27:27;;;;;;;7.30;6.60;;;9.10;99.90;;;;;;5012839;28;20083;-74
2022/06/03 01:30:11;;;;;;;6.70;6.05;;;9.10;99.90;;;;;;5057875;28;20136;-74
2022/06/03 01:32:57;;;;;;;7.07;6.25;;;9.10;99.90;;;;;;5070477;28;20076;-73
2022/06/03 01:35:53;;;;;;;6.88;6.18;;;9.00;99.90;;;;;;5070168;28;20131;-73
2022/06/03 01:38:32;;;;;;;7.47;6.40;;;9.00;99.90;;;;;;5070191;28;20041;-73
2022/06/03 01:41:18;;;;;;;9.93;6.93;;;9.00;99.90;;;;;;5070086;28;20097;-74
2022/06/03 01:44:02;;;;;;;6.30;5.70;;;9.00;99.90;;;;;;5069962;28;20032;-73
2022/06/03 01:46:35;;;;;;;8.13;6.60;;;9.00;99.90;;;;;;5070163;28;20048;-74
2022/06/03 01:49:52;;;;;;;6.70;6.10;;;9.00;99.90;;;;;;5070324;28;20032;-73
2022/06/03 01:52:55;;;;;;;7.80;6.30;;;9.00;99.90;;;;;;5044487;28;20041;-72
2022/06/03 01:56:05;;;;;;;7.32;6.43;;;9.00;99.90;;;;;;5069744;28;20141;-73
2022/06/03 01:59:04;;;;;;;6.97;6.28;;;9.00;99.90;;;;;;5070157;28;20040;-73
2022/06/03 02:01:42;;;;;;;6.97;6.18;;;8.90;99.90;;;;;;5070213;28;20037;-73
2022/06/03 02:04:22;;;;;;;7.22;6.32;;;8.90;99.90;;;;;;5070176;28;20067;-73
2022/06/03 02:07:09;;;;;;;8.50;7.55;;;8.90;99.90;;;;;;5069915;28;20549;-71
2022/06/03 02:09:44;;;;;;;8.05;7.22;;;8.90;99.90;;;;;;5070207;28;20048;-73
2022/06/03 02:12:42;;;;;;;8.90;7.20;;;8.80;99.90;;;;;;5069720;28;20478;-73
2022/06/03 02:15:36;;;;;;;10.60;6.70;;;8.80;99.90;;;;;;5072640;28;20041;-71
2022/06/03 02:18:33;;;;;;;7.22;6.50;;;8.70;99.90;;;;;;5074125;28;20355;-71
2022/06/03 02:21:24;;;;;;;7.47;6.07;;;8.70;99.90;;;;;;5057330;28;20036;-73
2022/06/03 02:23:52;;;;;;;9.23;6.82;;;8.80;99.90;;;;;;5073724;28;20067;-73
2022/06/03 02:26:54;;;;;;;7.28;6.57;;;8.80;99.90;;;;;;5073701;28;20115;-73
2022/06/03 02:32:26;;;;;;;6.60;6.00;;;8.80;99.90;;;;;;5073708;28;20599;-72
2022/06/03 02:35:23;;;;;;;8.85;7.50;;;8.70;99.90;;;;;;5073767;28;20041;-73
2022/06/03 02:37:49;;;;;;;7.75;6.85;;;8.80;99.90;;;;;;5073885;28;20677;-72
2022/06/03 02:40:39;;;;;;;8.35;7.55;;;8.70;99.90;;;;;;5073568;28;20115;-72
2022/06/03 02:43:40;;;;;;;8.48;7.50;;;8.70;99.90;;;;;;5056620;28;20036;-72
2022/06/03 02:46:31;;;;;;;8.60;6.95;;;8.70;99.90;;;;;;5073398;28;20123;-72
2022/06/03 02:49:02;;;;;;;8.95;8.05;;;8.70;99.90;;;;;;5073285;28;20041;-72
2022/06/03 02:52:06;;;;;;;10.53;8.90;;;8.70;99.90;;;;;;5073151;28;20119;-73
2022/06/03 02:55:06;;;;;;;10.10;8.57;;;8.60;99.90;;;;;;5072942;28;20352;-72
2022/06/03 02:57:51;;;;;;;9.20;8.25;;;8.60;99.90;;;;;;5073388;28;20390;-73
2022/06/03 03:00:20;;;;;;;9.82;8.45;;;8.50;99.90;;;;;;5073031;28;20037;-73
2022/06/03 03:02:57;;;;;;;9.75;7.70;;;8.50;99.90;;;;;;5073538;28;20044;-72
2022/06/03 03:06:02;;;;;;;9.95;7.63;;;8.60;99.90;;;;;;5072998;28;20378;-72
2022/06/03 03:08:27;;;;;;;8.35;7.43;;;8.50;99.90;;;;;;5039502;28;20135;-72
2022/06/03 03:11:05;;;;;;;8.95;7.90;;;8.50;99.90;;;;;;5073057;28;20521;-72
2022/06/03 03:13:52;;;;;;;9.68;8.52;;;8.50;99.90;;;;;;5072766;28;20489;-72
2022/06/03 03:16:26;;;;;;;10.50;8.32;;;8.50;99.90;;;;;;5072581;28;20044;-73
2022/06/03 03:19:20;;;;;;;9.20;8.27;;;8.40;99.90;;;;;;5072338;28;20036;-73
2022/06/03 03:22:24;;;;;;;9.85;7.68;;;8.40;99.90;;;;;;5072271;28;20036;-73
2022/06/03 03:25:02;;;;;;;10.38;7.65;;;8.50;99.90;;;;;;5072010;28;20482;-73
2022/06/03 03:27:58;;;;;;;9.65;7.55;;;8.40;99.90;;;;;;5072298;28;20642;-72
2022/06/03 03:31:11;;;;;;;10.52;8.25;;;8.50;99.90;;;;;;5055788;28;20044;-73
2022/06/03 03:34:05;;;;;;;9.23;8.23;;;8.40;99.90;;;;;;5055673;28;20044;-72
2022/06/03 03:36:51;;;;;;;11.50;8.00;;;8.50;99.90;;;;;;5072274;28;20478;-72
2022/06/03 03:40:06;;;;;;;10.00;7.80;;;8.50;99.90;;;;;;5055799;28;20416;-72
2022/06/03 03:43:00;;;;;;;9.23;8.30;;;8.50;99.90;;;;;;5055706;28;20115;-73
2022/06/03 03:45:48;;;;;;;8.68;7.88;;;8.60;99.90;;;;;;5071482;28;20056;-73
2022/06/03 03:48:38;;;;;;;8.68;7.38;;;8.70;99.90;;;;;;5055516;28;20044;-73
2022/06/03 03:51:45;;;;;;;8.98;7.90;;;8.70;99.90;;;;;;5072028;28;20048;-73
2022/06/03 03:54:42;;;;;;;11.35;8.40;;;8.80;99.90;;;;;;5071781;28;20490;-73
2022/06/03 03:57:32;;;;;;;9.00;7.82;;;8.90;99.90;;;;;;5071935;28;20032;-73
2022/06/03 04:00:23;;;;;;;8.52;7.72;;;9.10;99.90;;;;;;5071702;28;20036;-73
2022/06/03 04:03:07;;;;;;;10.68;8.02;;;9.20;99.90;;;;;;5071738;28;20036;-73
2022/06/03 04:05:56;;;;;;;12.00;8.05;;;9.30;99.90;;;;;;5071542;28;20405;-72
2022/06/03 04:08:30;;;;;;;9.40;8.13;;;9.40;99.90;;;;;;5071805;28;20537;-73
2022/06/03 04:11:08;;;;;;;9.70;8.30;;;9.50;99.90;;;;;;5054937;28;20123;-74
2022/06/03 04:14:07;;;;;;;9.77;8.15;;;9.70;99.90;;;;;;5071694;28;20137;-71
2022/06/03 04:17:02;;;;;;;10.15;8.60;;;9.70;99.90;;;;;;5071389;28;20048;-73
2022/06/03 04:19:34;;;;;;;8.95;7.68;;;9.90;99.90;;;;;;5049316;28;20080;-73
2022/06/03 04:22:22;;;;;;;8.73;7.93;;;9.90;99.90;;;;;;5054777;28;20410;-72
2022/06/03 04:25:12;;;;;;;11.73;8.93;;;10.00;99.90;;;;;;5071531;28;20079;-71
2022/06/03 04:27:53;;;;;;;8.85;8.00;;;10.10;99.90;;;;;;5071240;28;20049;-73
2022/06/03 04:30:32;;;;;;;9.38;7.80;;;10.20;99.90;;;;;;5071358;28;20520;-72
2022/06/03 04:33:07;;;;;;;8.60;7.50;;;10.30;99.90;;;;;;5070804;28;20048;-73
2022/06/03 04:36:00;;;;;;;9.23;8.23;;;10.30;99.90;;;;;;5071030;28;20049;-73
2022/06/03 04:39:03;;;;;;;9.52;8.43;;;10.30;99.90;;;;;;5070682;28;20040;-75
2022/06/03 04:42:01;;;;;;;;;;;10.30;99.90;;;;;;5071310;28;20086;-74
2022/06/03 04:45:21;;;;;;;13.23;8.15;;;10.30;99.90;;;;;;5070763;28;19916;-74
2022/06/03 04:48:14;;;;;;;10.50;8.00;;;10.30;99.90;;;;;;5012619;28;20133;-74
2022/06/03 04:50:48;;;;;;;8.45;7.68;;;10.30;99.90;;;;;;5069754;28;20074;-74
2022/06/03 04:53:55;;;;;;;10.15;8.48;;;10.30;99.90;;;;;;5070476;28;20045;-74
2022/06/03 04:56:39;;;;;;;11.38;8.40;;;10.40;99.90;;;;;;5070549;28;20052;-74
2022/06/03 04:59:45;;;;;;;8.85;7.93;;;10.40;99.90;;;;;;5070801;28;20124;-74
2022/06/03 05:02:48;;;;;;;10.73;8.27;;;10.50;99.90;;;;;;5070608;28;20036;-73
2022/06/03 05:05:17;;;;;;;13.27;8.32;;;10.60;99.90;;;;;;5070466;28;20040;-74
2022/06/03 05:08:27;;;;;;;9.10;8.20;;;10.70;99.90;;;;;;5070330;28;20047;-74
2022/06/03 05:11:32;;;;;;;8.88;7.97;;;10.70;99.90;;;;;;5046920;28;20071;-73
2022/06/03 05:14:15;;;;;;;9.45;8.45;;;10.80;99.90;;;;;;5071649;28;20051;-73
2022/06/03 05:17:03;;;;;;;9.65;8.23;;;10.90;99.90;;;;;;5069887;28;20048;-74
2022/06/03 05:19:47;;;;;;;9.13;7.60;;;11.00;99.90;;;;;;5070073;28;20041;-73
2022/06/03 05:22:34;;;;;;;9.77;7.43;;;11.10;99.90;;;;;;5070001;28;20036;-73
2022/06/03 05:25:28;;;;;;;11.18;7.97;;;11.30;99.90;;;;;;5070511;28;20044;-73
2022/06/03 05:28:12;;;;;;;9.18;7.85;;;11.30;99.90;;;;;;5069922;28;20045;-73
2022/06/03 05:31:06;;;;;;;8.65;7.78;;;11.40;99.90;;;;;;5053136;28;20085;-74
2022/06/03 05:33:56;;;;;;;9.15;7.78;;;11.50;99.90;;;;;;5069694;28;20083;-74
2022/06/03 05:36:24;;;;;;;8.57;6.90;;;11.60;99.90;;;;;;5069754;28;20048;-74
2022/06/03 05:39:11;;;;;;;9.32;7.90;;;11.80;99.90;;;;;;5069591;28;20048;-74
2022/06/03 05:45:30;;;;;;;7.68;6.95;;;12.10;99.90;;;;;;5069399;28;20138;-74
2022/06/03 05:48:27;;;;;;;7.80;6.75;;;12.60;99.90;;;;;;5069293;28;20409;-74
2022/06/03 05:51:35;;;;;;;9.05;6.50;;;14.60;99.90;;;;;;5069890;28;20478;-73
2022/06/03 05:54:23;;;;;;;6.80;6.20;;;16.50;99.90;;;;;;5069233;28;20059;-73
2022/06/03 05:57:11;;;;;;;7.20;5.65;;;18.10;99.90;;;;;;5069866;28;20068;-73
2022/06/03 05:59:55;;;;;;;6.07;5.47;;;19.10;99.90;;;;;;5069291;28;20037;-73
2022/06/03 06:03:04;;;;;;;6.85;4.80;;;20.10;99.20;;;;;;5068923;28;20542;-72
2022/06/03 06:05:45;;;;;;;5.90;4.50;;;21.10;96.10;;;;;;5061151;28;20051;-73
2022/06/03 06:08:34;;;;;;;5.25;4.75;;;21.90;93.60;;;;;;5077464;22;20513;-74
2022/06/03 06:11:37;;;;;;;5.13;4.63;;;22.40;92.90;;;;;;5035538;28;20055;-74
2022/06/03 06:14:17;;;;;;;4.72;4.22;;;22.80;91.30;;;;;;5052169;28;20050;-75
2022/06/03 06:16:45;;;;;;;4.50;4.10;;;23.10;85.90;;;;;;5052058;28;20401;-75
2022/06/03 06:19:35;;;;;;;4.13;3.35;;;23.20;86.40;;;;;;5035185;28;20041;-75
2022/06/03 06:22:30;;;;;;;3.90;3.60;;;23.70;85.30;;;;;;5052268;28;20198;-75
2022/06/03 06:24:59;;;;;;;5.25;3.88;;;23.90;82.30;;;;;;5051686;28;20578;-75
2022/06/03 06:27:33;;;;;;;4.70;3.50;;;24.30;80.70;;;;;;5051928;28;20045;-75
2022/06/03 06:30:14;;;;;;;4.47;3.58;;;24.50;73.00;;;;;;5035501;28;20071;-75
2022/06/03 06:32:45;;;;;;;4.13;3.67;;;24.60;73.80;;;;;;5051882;28;20041;-74
2022/06/03 06:35:44;;;;;;;3.78;3.45;;;24.60;73.80;;;;;;5051815;28;20041;-75
2022/06/03 06:38:17;;;;;;;3.10;2.80;;;24.50;72.40;;;;;;5052044;28;20137;-75
2022/06/03 06:41:06;;;;;;;3.30;3.00;;;24.70;71.10;;;;;;5051852;28;20049;-75
2022/06/03 06:43:54;;;;;;;3.05;2.72;;;24.90;72.50;;;;;;5051728;28;20390;-75
2022/06/03 06:46:33;;;;;;;2.78;2.30;;;25.40;69.00;;;;;;5068507;28;20040;-74
2022/06/03 06:49:26;;;;;;;2.70;2.28;;;25.60;67.60;;;;;;5035052;28;20154;-75
2022/06/03 06:52:03;;;;;;;3.25;2.60;;;26.30;66.30;;;;;;5051765;28;20068;-75
2022/06/03 06:55:06;;;;;;;2.78;2.15;;;26.40;64.40;;;;;;5052025;28;20051;-74
2022/06/03 06:57:46;;;;;;;3.50;2.40;;;26.70;62.60;;;;;;5051657;28;20036;-75
2022/06/03 07:00:16;;;;;;;4.75;2.58;;;26.40;61.80;;;;;;5053320;28;20359;-76
2022/06/03 07:02:52;;;;;;;5.30;2.67;;;26.30;61.40;;;;;;5055404;28;20044;-75
2022/06/03 07:05:40;;;;;;;4.05;2.42;;;26.10;61.90;;;;;;5055397;28;20453;-75
2022/06/03 07:08:20;;;;;;;3.35;2.35;;;26.40;63.80;;;;;;5055007;28;20067;-75
2022/06/03 07:11:06;;;;;;;3.17;2.25;;;26.40;59.00;;;;;;5055168;28;20044;-75
2022/06/03 07:13:42;;;;;;;2.50;2.15;;;26.10;57.40;;;;;;5038625;28;20080;-75
2022/06/03 07:22:17;;;;;;;2.38;1.48;;;26.30;59.30;;;;;;5055065;28;20063;-75
2022/06/03 07:25:04;;;;;;;2.70;1.52;;;26.00;58.10;;;;;;5054880;28;20055;-75
2022/06/03 07:27:35;;;;;;;3.65;1.90;;;25.80;57.50;;;;;;5055174;28;20510;-75
2022/06/03 07:30:10;;;;;;;2.27;1.30;;;26.10;59.00;;;;;;5054709;28;20526;-74
2022/06/03 07:33:04;;;;;;;2.83;1.40;;;26.30;59.70;;;;;;5054852;28;20119;-74
2022/06/03 07:35:48;;;;;;;2.47;1.80;;;26.40;57.60;;;;;;5038031;28;20506;-75
2022/06/03 07:38:37;;;;;;;2.13;1.40;;;26.30;58.00;;;;;;5055002;28;20382;-74
2022/06/03 07:41:14;;;;;;;2.22;1.63;;;26.00;59.20;;;;;;5054805;28;20545;-75
2022/06/03 07:43:56;;;;;;;1.63;1.17;;;25.70;59.10;;;;;;5054644;28;20072;-75
2022/06/03 07:46:31;;;;;;;1.77;1.65;;;26.10;58.10;;;;;;5071208;28;20090;-76
2022/06/03 07:48:56;;;;;;;3.63;1.88;;;26.10;57.40;;;;;;5054772;28;20059;-76
2022/06/03 07:51:34;;;;;;;3.75;2.35;;;25.90;58.30;;;;;;5037782;28;20056;-74
2022/06/03 07:54:40;;;;;;;2.20;1.80;;;26.60;60.30;;;;;;5054387;28;20056;-76
2022/06/03 07:57:18;;;;;;;2.33;1.83;;;26.60;58.50;;;;;;5021096;28;20044;-75
2022/06/03 07:59:44;;;;;;;6.45;1.60;;;26.20;57.80;;;;;;5054186;28;20044;-75
2022/06/03 08:02:21;;;;;;;1.83;1.52;;;26.40;59.10;;;;;;5054400;28;20032;-76
2022/06/03 08:04:58;;;;;;;2.05;1.73;;;26.10;57.30;;;;;;5037483;28;20131;-73
2022/06/03 08:13:06;;;;;;;2.33;2.08;;;24.40;62.70;;;;;;5053251;28;20087;-75
2022/06/03 08:15:51;;;;;;;3.33;2.30;;;23.50;62.60;;;;;;5069918;28;20049;-75
2022/06/03 08:18:18;;;;;;;3.63;2.00;;;23.00;64.40;;;;;;5053985;28;20040;-75
2022/06/03 08:20:50;;;;;;;2.58;2.38;;;22.70;65.20;;;;;;5054019;28;20131;-74
2022/06/03 08:23:18;;;;;;;4.95;2.65;;;21.80;65.50;;;;;;5037573;28;20389;-74
2022/06/03 08:25:48;;;;;;;3.17;2.63;;;21.60;68.20;;;;;;5053644;28;20123;-75
2022/06/03 08:28:20;;;;;;;4.25;2.53;;;21.40;68.30;;;;;;5054159;28;20127;-74
2022/06/03 08:30:50;;;;;;;3.10;2.50;;;21.20;69.30;;;;;;5053753;28;20071;-75
2022/06/03 08:33:26;;;;;;;2.65;2.15;;;21.00;69.70;;;;;;5070268;28;20104;-74
2022/06/03 08:35:52;;;;;;;2.53;2.33;;;21.20;71.00;;;;;;5053409;28;20049;-74
2022/06/03 08:38:22;;;;;;;3.67;2.72;;;21.10;72.40;;;;;;5053391;28;20044;-75
2022/06/03 08:41:10;;;;;;;3.45;2.65;;;21.00;71.70;;;;;;5071411;28;20040;-74
2022/06/03 08:44:05;;;;;;;3.10;2.60;;;20.70;70.20;;;;;;5036881;28;20043;-74
2022/06/03 08:46:43;;;;;;;3.38;2.78;;;20.40;72.50;;;;;;5053210;28;20166;-75
2022/06/03 08:49:17;;;;;;;3.80;2.60;;;20.50;73.20;;;;;;5070038;28;20052;-75
2022/06/03 08:51:54;;;;;;;3.83;2.35;;;20.60;73.90;;;;;;5053179;28;20048;-75
2022/06/03 08:54:29;;;;;;;3.85;2.60;;;20.70;74.20;;;;;;5053288;28;20037;-76
2022/06/03 08:57:07;;;;;;;4.47;2.90;;;20.50;73.30;;;;;;5053343;28;20502;-75
2022/06/03 08:59:44;;;;;;;3.20;2.60;;;20.20;74.20;;;;;;5036812;28;20102;-76
2022/06/03 09:02:31;;;;;;;4.05;2.70;;;20.40;75.50;;;;;;5053280;28;20052;-75
2022/06/03 09:05:06;;;;;;;3.83;2.90;;;20.50;75.70;;;;;;5053274;28;20048;-75
2022/06/03 09:07:44;;;;;;;3.45;2.50;;;20.60;74.20;;;;;;5053132;28;20398;-75
2022/06/03 09:10:19;;;;;;;5.13;2.85;;;20.50;76.90;;;;;;5036355;28;20048;-76
2022/06/03 09:12:59;;;;;;;5.15;3.00;;;20.60;76.00;;;;;;5069734;28;20127;-75
2022/06/03 09:15:29;;;;;;;3.13;2.92;;;20.80;76.40;;;;;;5036277;28;20040;-75
2022/06/03 09:18:27;;;;;;;3.78;2.55;;;20.70;75.70;;;;;;5052781;28;20036;-75
2022/06/03 09:21:17;;;;;;;4.20;3.13;;;20.60;77.10;;;;;;5052201;28;20486;-75
2022/06/03 09:23:48;;;;;;;3.28;2.97;;;20.70;75.50;;;;;;5051675;28;20131;-75
2022/06/03 09:26:39;;;;;;;3.23;2.93;;;20.50;77.20;;;;;;5052916;28;20067;-74
2022/06/03 09:29:07;;;;;;;3.58;2.75;;;20.70;77.20;;;;;;5024818;28;20049;-75
2022/06/03 09:31:36;;;;;;;3.90;2.83;;;20.80;77.10;;;;;;5035941;28;20036;-74
2022/06/03 09:34:02;;;;;;;3.13;2.25;;;20.90;75.70;;;;;;5035880;28;20139;-75
2022/06/03 09:36:32;;;;;;;3.10;2.90;;;21.00;77.10;;;;;;5052512;28;20117;-75
2022/06/03 09:39:02;;;;;;;4.40;2.67;;;21.10;77.20;;;;;;5052406;28;20040;-75
2022/06/03 09:41:34;;;;;;;4.50;2.67;;;21.20;78.10;;;;;;5035452;28;20039;-75
2022/06/03 09:44:03;;;;;;;3.08;2.65;;;21.30;76.20;;;;;;5052640;28;20044;-75
2022/06/03 09:46:30;;;;;;;2.75;2.55;;;21.30;76.40;;;;;;5052503;28;20540;-76
2022/06/03 09:48:57;;;;;;;3.10;2.80;;;21.40;74.80;;;;;;5035775;28;20066;-75
2022/06/03 09:54:34;;;;;;;4.50;2.90;;;21.40;74.30;;;;;;5031113;28;20076;-74
2022/06/03 09:57:21;;;;;;;2.97;2.13;;;21.40;74.70;;;;;;5035730;28;20128;-75
2022/06/03 10:00:15;;;;;;;3.10;2.80;;;21.60;75.90;;;;;;5052251;28;20040;-75
2022/06/03 10:02:45;;;;;;;3.92;2.75;;;21.60;73.70;;;;;;5051464;28;20048;-75
2022/06/03 10:05:16;;;;;;;2.97;2.30;;;21.50;74.00;;;;;;5052107;28;20040;-75
2022/06/03 10:07:43;;;;;;;2.72;2.33;;;21.60;75.10;;;;;;5052100;28;20048;-74
2022/06/03 10:12:59;;;;;;;3.20;2.40;;;21.70;75.60;;;;;;5052027;28;20056;-75
2022/06/03 10:15:38;;;;;;;5.43;2.58;;;21.60;70.40;;;;;;5051956;28;20048;-75
2022/06/03 10:18:14;;;;;;;2.50;1.88;;;21.40;71.20;;;;;;5035275;28;20044;-74
2022/06/03 10:20:40;;;;;;;2.72;2.22;;;21.60;75.00;;;;;;5051949;28;20033;-75
2022/06/03 10:23:10;;;;;;;3.03;2.08;;;21.80;71.20;;;;;;5068493;28;20366;-75
2022/06/03 10:25:42;;;;;;;2.70;2.10;;;21.50;69.70;;;;;;5035309;28;20040;-75
2022/06/03 10:28:10;;;;;;;4.20;1.80;;;21.60;70.40;;;;;;5035109;28;20039;-75
2022/06/03 10:30:39;;;;;;;2.60;2.28;;;21.90;75.10;;;;;;5052256;28;20495;-75
2022/06/03 10:33:05;;;;;;;2.30;1.90;;;21.90;69.60;;;;;;5051974;28;20071;-75
2022/06/03 10:35:38;;;;;;;3.03;2.13;;;21.80;71.60;;;;;;5053773;28;20090;-75
2022/06/03 10:38:06;;;;;;;2.22;1.88;;;21.90;72.10;;;;;;5055814;28;20032;-75
2022/06/03 10:40:34;;;;;;;2.60;2.03;;;21.60;70.30;;;;;;5056094;28;20428;-75
2022/06/03 10:43:03;;;;;;;2.85;2.50;;;21.60;70.70;;;;;;5055805;28;20101;-74
2022/06/03 10:45:31;;;;;;;1.77;1.50;;;21.60;71.00;;;;;;5056142;28;20048;-74
2022/06/03 10:47:57;;;;;;;1.88;1.70;;;21.80;75.50;;;;;;5055409;28;20048;-74
2022/06/03 10:50:35;;;;;;;2.80;1.85;;;21.80;69.30;;;;;;5055946;28;20043;-75
2022/06/03 11:01:45;;;;;;;1.98;1.80;;;22.00;72.30;;;;;;5055597;28;20040;-75
2022/06/03 11:04:27;;;;;;;2.72;2.22;;;22.10;68.20;;;;;;5038739;28;20276;-75
2022/06/03 11:06:53;;;;;;;3.40;1.80;;;22.20;69.10;;;;;;5055268;28;20250;-75
2022/06/03 11:09:19;;;;;;;2.72;2.20;;;22.40;72.80;;;;;;5054977;28;20139;-75
2022/06/03 11:11:58;;;;;;;2.35;2.00;;;21.90;68.00;;;;;;5055383;28;20421;-75
2022/06/03 11:14:46;;;;;;;2.72;1.80;;;21.50;69.00;;;;;;5038430;28;20040;-75
2022/06/03 11:17:21;;;;;;;2.38;2.03;;;21.60;70.20;;;;;;5054834;28;20049;-74
2022/06/03 11:19:53;;;;;;;2.67;2.10;;;21.40;70.10;;;;;;5055001;28;20055;-75
2022/06/03 11:22:24;;;;;;;;;;;21.70;73.40;;;;;;5055530;28;20470;-75
2022/06/03 11:24:55;;;;;;;;;;;21.90;74.00;;;;;;5038739;28;20370;-75
2022/06/03 11:27:29;;;;;;;2.53;2.33;;;22.10;72.00;;;;;;5055408;28;20010;-75
2022/06/03 11:30:01;;;;;;;3.05;2.20;;;22.00;70.00;;;;;;5054758;28;20045;-75
2022/06/03 11:32:30;;;;;;;2.10;1.90;;;22.10;74.50;;;;;;5055222;28;20036;-75
2022/06/03 11:35:08;;;;;;;2.58;1.60;;;22.30;75.50;;;;;;5054976;28;20032;-74
2022/06/03 11:37:40;;;;;;;1.85;1.45;;;22.40;74.40;;;;;;5054699;28;20514;-75
2022/06/03 11:40:22;;;;;;;2.70;1.70;;;22.00;73.10;;;;;;5038012;28;20041;-74
2022/06/03 11:43:17;;;;;;;;;;;22.00;74.00;;;;;;5038561;28;20119;-75
2022/06/03 11:45:55;;;;;;;3.17;1.90;;;22.00;74.60;;;;;;5037399;28;19924;-74
2022/06/03 11:48:32;;;;;;;3.60;2.30;;;21.80;72.60;;;;;;5037383;28;20033;-75
2022/06/03 11:50:59;;;;;;;2.20;2.05;;;21.90;74.70;;;;;;5054680;28;20091;-75
2022/06/03 11:53:31;;;;;;;2.90;1.88;;;22.10;74.80;;;;;;5054656;28;20101;-75
2022/06/03 11:56:01;;;;;;;2.88;2.20;;;21.70;68.50;;;;;;5054255;28;20051;-75
2022/06/03 11:58:44;;;;;;;2.25;2.05;;;22.00;72.10;;;;;;5054491;28;20127;-76
2022/06/03 12:01:18;;;;;;;2.58;2.38;;;22.30;70.20;;;;;;5071025;28;20522;-75
2022/06/03 12:04:12;;;;;;;4.10;2.28;;;22.40;71.00;;;;;;5054190;28;20040;-75
2022/06/03 12:06:47;;;;;;;2.63;2.22;;;22.20;70.30;;;;;;5017151;28;20060;-75
2022/06/03 12:09:34;;;;;;;3.25;2.20;;;22.20;68.90;;;;;;5053987;28;20061;-76
2022/06/03 12:15:31;;;;;;;2.67;2.08;;;22.70;69.40;;;;;;5053921;28;20056;-75
2022/06/03 12:18:06;;;;;;;2.85;1.98;;;22.60;71.50;;;;;;5047037;28;20457;-75
2022/06/03 12:20:32;;;;;;;2.80;1.83;;;22.60;67.40;;;;;;5053811;28;20068;-75
2022/06/03 12:23:13;;;;;;;2.22;1.70;;;22.30;69.60;;;;;;5053943;28;20075;-74
2022/06/03 12:25:54;;;;;;;4.70;1.55;;;22.40;67.80;;;;;;5037118;28;20207;-75
2022/06/03 12:28:41;;;;;;;2.00;1.90;;;22.60;71.80;;;;;;5054148;28;20048;-75
2022/06/03 12:31:14;;;;;;;2.00;1.77;;;22.80;71.70;;;;;;5036956;28;20050;-74
2022/06/03 12:33:58;;;;;;;2.72;1.75;;;22.20;63.00;;;;;;5054139;28;20501;-74
2022/06/03 12:36:24;;;;;;;2.20;1.98;;;22.20;68.20;;;;;;5053932;28;20498;-76
2022/06/03 12:39:28;;;;;;;2.75;1.83;;;22.50;66.90;;;;;;5053560;28;20079;-76
2022/06/03 12:42:08;;;;;;;1.85;1.40;;;22.60;71.10;;;;;;5053539;28;20047;-75
2022/06/03 12:44:40;;;;;;;2.10;1.90;;;22.70;66.50;;;;;;5053945;28;20127;-75
2022/06/03 12:47:17;;;;;;;2.13;1.63;;;22.70;69.60;;;;;;5053642;28;20094;-76
2022/06/03 12:49:43;;;;;;;1.63;1.48;;;22.00;61.60;;;;;;5036689;28;20044;-75
2022/06/03 12:52:29;;;;;;;3.50;1.85;;;22.50;70.10;;;;;;5053511;28;20048;-75
2022/06/03 12:55:35;;;;;;;2.65;1.50;;;22.70;66.00;;;;;;5022850;28;20067;-74
2022/06/03 12:58:04;;;;;;;2.95;1.60;;;22.70;68.10;;;;;;5053539;28;20504;-75
2022/06/03 13:00:48;;;;;;;1.80;1.40;;;22.80;67.10;;;;;;5052956;28;20543;-74
2022/06/03 13:03:16;;;;;;;2.35;1.65;;;22.70;65.40;;;;;;5053404;28;20453;-74
2022/06/03 13:05:45;;;;;;;2.47;1.75;;;22.70;67.50;;;;;;5053191;28;20089;-74
2022/06/03 13:08:27;;;;;;;2.70;1.90;;;22.10;65.70;;;;;;5052890;28;20074;-74
2022/06/03 13:11:17;;;;;;;1.58;1.48;;;22.10;65.70;;;;;;5053023;28;20040;-74
2022/06/03 13:14:06;;;;;;;3.03;1.58;;;22.00;69.00;;;;;;5052904;28;20044;-74
2022/06/03 13:16:31;;;;;;;2.92;1.60;;;22.40;66.30;;;;;;5053066;28;20051;-74
2022/06/03 13:19:18;;;;;;;3.78;1.85;;;22.60;69.10;;;;;;5052812;28;20045;-74
2022/06/03 13:22:02;;;;;;;1.90;1.55;;;22.90;68.30;;;;;;5052419;28;20044;-75
2022/06/03 13:24:33;;;;;;;4.38;1.73;;;22.80;65.10;;;;;;5036084;28;20047;-75
2022/06/03 13:26:58;;;;;;;2.37;1.80;;;22.80;68.30;;;;;;5052626;28;20040;-74
2022/06/03 13:29:46;;;;;;;2.40;1.67;;;22.50;67.10;;;;;;5052664;28;20555;-75
2022/06/03 13:32:17;;;;;;;3.03;1.50;;;22.00;66.80;;;;;;5035827;28;20510;-75
2022/06/03 13:34:44;;;;;;;2.92;1.60;;;22.20;68.20;;;;;;5052657;28;20375;-75
2022/06/03 13:37:28;;;;;;;3.17;1.65;;;22.00;67.50;;;;;;5052776;28;20421;-75
2022/06/03 13:39:54;;;;;;;2.55;1.40;;;21.60;67.30;;;;;;5035852;28;20076;-75
2022/06/03 13:45:04;;;;;;;1.65;1.50;;;21.90;68.20;;;;;;5052427;28;20056;-75
2022/06/03 13:47:56;;;;;;;4.05;1.48;;;22.30;70.70;;;;;;5052537;28;20052;-74
2022/06/03 13:50:27;;;;;;;;;;;22.60;72.00;;;;;;5052213;28;20159;-74
2022/06/03 13:52:56;;;;;;;2.60;1.60;;;22.60;67.60;;;;;;5052325;28;20385;-74
2022/06/03 13:55:46;;;;;;;1.58;1.30;;;22.50;67.20;;;;;;5035706;28;20032;-74
2022/06/03 13:58:19;;;;;;;2.20;1.23;;;22.30;65.00;;;;;;5052396;28;20071;-74
2022/06/03 14:00:50;;;;;;;2.55;1.30;;;22.50;69.30;;;;;;5051360;28;20040;-74
2022/06/03 14:03:21;;;;;;;1.77;1.60;;;22.40;65.80;;;;;;5045837;28;20037;-73
2022/06/03 14:05:54;;;;;;;1.60;1.33;;;22.50;64.50;;;;;;5051508;28;20057;-74
2022/06/03 14:08:38;;;;;;;3.13;1.25;;;22.30;64.10;;;;;;5045953;28;20393;-75
2022/06/03 14:11:04;;;;;;;2.75;1.48;;;22.10;65.90;;;;;;5031341;28;20049;-75
2022/06/03 14:13:56;;;;;;;2.17;1.25;;;22.10;64.20;;;;;;5032187;28;20060;-75
2022/06/03 14:16:46;;;;;;;1.92;1.25;;;22.00;66.10;;;;;;4997323;28;20199;-75
2022/06/03 14:19:11;;;;;;;1.10;1.00;;;21.90;64.10;;;;;;5045313;28;20072;-74
2022/06/03 14:21:37;;;;;;;1.55;1.45;;;21.90;66.30;;;;;;5052128;28;20079;-74
2022/06/03 14:24:15;;;;;;;1.67;1.58;;;21.80;62.90;;;;;;5052073;28;20087;-74
2022/06/03 14:26:59;;;;;;;1.20;1.10;;;21.80;64.60;;;;;;5052164;28;20397;-74
2022/06/03 14:29:34;;;;;;;1.45;0.95;;;21.90;66.40;;;;;;5052015;28;20044;-74
2022/06/03 14:32:04;;;;;;;2.35;1.70;;;22.10;66.80;;;;;;5045035;28;20040;-75
2022/06/03 14:34:48;;;;;;;2.55;1.40;;;22.60;69.20;;;;;;5032030;28;20064;-74
2022/06/03 14:37:24;;;;;;;1.35;1.10;;;22.70;64.30;;;;;;5031828;28;20052;-74
2022/06/03 14:39:51;;;;;;;1.90;1.27;;;22.90;68.30;;;;;;5032227;28;20383;-74
2022/06/03 14:42:32;;;;;;;5.55;1.10;;;23.00;68.10;;;;;;5031875;28;20047;-75
2022/06/03 14:45:00;;;;;;;2.15;1.38;;;22.60;63.40;;;;;;5048582;28;20056;-74